Terminal Aerodrome Forecast
Issued by NWS

Home | Current Version | Previous Version | Text Only | Print | Product List | Glossary On
Versions: 1 2 3 4 5 6 7 8 9 10 11 12 13 14 15 16 17 18 19 20 21 22 23 24 25 26 27 28 29 30 31 32 33 34 35 36 37 38 39 40 41 42 43 44
167
FTAK31 PAFA 241752 AAA
TAFAMC
TAF AMD
PAMC 241752Z 2418/2518 24008KT P6SM SCT030 OVC060
     FM242100 22007G15KT P6SM OVC050
     FM250200 22014G20KT 5SM -SHRASN BR OVC020
     FM251000 20012KT 5SM -SHSN OVC015=

USA.gov is the U.S. government's official web portal to all federal, state and local government web resources and services.